Time;durP1;ratioP1;P1;durP2;ratioP2;P2;SDS_P1;SDS_P2;PMS_P1;PMS_P2;Temp;Humidity;BMP_temperature;BMP_pressure;BME280_temperature;BME280_humidity;BME280_pressure;Samples;Min_cycle;Max_cycle;Signal;HPM_P1;HPM_P2
2021/07/22 08:01:11;;;;;;;3.40;1.25;;;;;;;23.14;100.00;98850.46;1810965;78;22762;-63
2021/07/22 08:03:40;;;;;;;6.45;1.30;;;;;;;23.35;100.00;98853.67;1785513;80;21394;-65
2021/07/22 08:06:09;;;;;;;3.75;1.20;;;;;;;23.48;100.00;98856.45;1786402;80;21138;-65
2021/07/22 08:08:42;;;;;;;3.30;1.35;;;;;;;23.55;100.00;98858.69;1789049;80;20923;-66
2021/07/22 08:11:14;;;;;;;8.88;1.30;;;;;;;23.62;100.00;98851.08;1791234;80;21017;-65
2021/07/22 08:13:44;;;;;;;;;;;;;;;23.69;100.00;98846.20;1788216;80;20899;-64
2021/07/22 08:16:29;;;;;;;4.00;1.40;;;;;;;23.75;100.00;98851.19;1626853;87;20108;-65
2021/07/22 08:19:03;;;;;;;4.25;1.17;;;;;;;23.78;100.00;98853.20;1643408;86;21128;-65
2021/07/22 08:21:34;;;;;;;5.75;1.10;;;;;;;23.80;100.00;98849.92;1648297;85;20989;-64
2021/07/22 08:24:05;;;;;;;2.00;1.10;;;;;;;23.84;100.00;98847.41;1648641;85;21038;-64
2021/07/22 08:26:38;;;;;;;3.85;1.40;;;;;;;23.91;100.00;98852.40;1648475;85;21041;-64
2021/07/22 08:29:08;;;;;;;2.65;1.10;;;;;;;23.98;100.00;98851.03;1641056;85;20962;-64
2021/07/22 08:31:37;;;;;;;5.20;1.02;;;;;;;24.08;98.94;98851.67;1672776;84;21167;-65
2021/07/22 08:34:08;;;;;;;5.55;1.17;;;;;;;24.15;95.42;98848.98;1643474;86;20990;-66
2021/07/22 08:36:40;;;;;;;4.42;1.30;;;;;;;24.21;92.80;98845.50;1645450;87;20982;-65
2021/07/22 08:39:10;;;;;;;6.15;1.10;;;;;;;24.20;84.02;98843.78;1633008;86;20955;-68
2021/07/22 08:41:44;;;;;;;3.67;1.10;;;;;;;24.18;82.38;98845.22;1682688;84;20867;-66
2021/07/22 08:44:13;;;;;;;3.62;1.17;;;;;;;24.21;81.75;98842.33;1654139;85;21485;-68
2021/07/22 08:46:42;;;;;;;1.62;0.90;;;;;;;24.23;81.08;98843.09;1638419;86;21015;-69
2021/07/22 08:49:13;;;;;;;5.05;1.30;;;;;;;24.29;81.05;98843.19;1624780;86;20984;-73
2021/07/22 08:51:44;;;;;;;2.80;1.00;;;;;;;24.37;83.67;98844.41;1643628;85;20935;-68
2021/07/22 08:54:14;;;;;;;1.60;0.90;;;;;;;24.49;83.31;98849.45;1648476;85;20962;-68
2021/07/22 08:56:43;;;;;;;3.67;1.15;;;;;;;24.57;81.73;98851.14;1622166;87;21127;-70
2021/07/22 08:59:11;;;;;;;10.23;1.40;;;;;;;24.63;80.89;98849.41;1618618;87;20918;-69
2021/07/22 09:01:40;;;;;;;5.67;1.02;;;;;;;24.71;80.19;98852.94;1613766;87;21491;-67
2021/07/22 09:04:10;;;;;;;6.62;1.07;;;;;;;24.78;77.96;98856.45;1639166;85;20963;-67
2021/07/22 09:06:39;;;;;;;4.83;0.98;;;;;;;24.82;73.14;98854.41;1627788;85;20955;-68
2021/07/22 09:09:17;;;;;;;7.28;0.82;;;;;;;24.84;71.73;98859.21;1634762;86;21167;-69
2021/07/22 09:12:01;;;;;;;3.62;1.00;;;;;;;24.86;71.99;98856.41;1668287;84;20931;-69
2021/07/22 09:14:31;;;;;;;7.33;1.40;;;;;;;24.91;73.40;98856.95;1674722;84;21018;-64
2021/07/22 09:17:01;;;;;;;6.75;1.07;;;;;;;24.93;69.89;98850.48;1659102;85;21017;-64
2021/07/22 09:19:39;;;;;;;3.90;1.10;;;;;;;24.95;68.15;98842.27;1673934;84;21002;-65
2021/07/22 09:22:10;;;;;;;48.87;2.47;;;;;;;24.98;66.81;98851.05;1682787;83;21151;-66
2021/07/22 09:24:53;;;;;;;7.60;1.10;;;;;;;25.03;64.69;98858.34;1665755;84;21006;-63
2021/07/22 09:27:42;;;;;;;3.40;0.90;;;;;;;25.25;64.79;98852.81;1660421;85;20999;-63
2021/07/22 09:30:18;;;;;;;7.05;0.88;;;;;;;25.32;62.42;98849.57;1658558;85;21031;-64
2021/07/22 09:32:52;;;;;;;6.50;0.90;;;;;;;25.39;60.83;98841.89;1660627;85;21394;-66
2021/07/22 09:35:21;;;;;;;2.47;0.80;;;;;;;25.39;59.88;98846.81;1662357;85;21258;-65
2021/07/22 09:37:53;;;;;;;2.00;0.90;;;;;;;25.45;61.35;98844.64;1637430;86;20923;-65
2021/07/22 09:40:32;;;;;;;2.37;0.98;;;;;;;25.46;63.37;98845.02;1661315;85;20955;-64
2021/07/22 09:42:59;;;;;;;5.17;0.80;;;;;;;25.43;63.97;98848.31;1635065;86;20948;-64
2021/07/22 10:25:42;;;;;;;2.30;0.95;;;;;;;26.29;56.92;98849.72;1780875;79;22693;-63
2021/07/22 10:28:11;;;;;;;3.30;0.88;;;;;;;26.43;55.69;98848.70;1755734;81;20950;-62
2021/07/22 10:30:39;;;;;;;2.25;0.82;;;;;;;26.51;57.91;98847.67;1773846;80;21993;-62
2021/07/22 10:33:08;;;;;;;3.83;1.00;;;;;;;26.60;57.37;98851.51;1771429;79;20917;-64
2021/07/22 10:35:36;;;;;;;2.83;0.80;;;;;;;26.66;57.35;98860.02;1783556;79;20919;-63
2021/07/22 10:38:24;;;;;;;3.70;0.80;;;;;;;26.75;57.73;98856.23;1721249;82;21132;-62
2021/07/22 10:40:57;;;;;;;2.15;1.00;;;;;;;26.83;58.26;98861.42;1738156;81;21018;-63
2021/07/22 10:43:37;;;;;;;7.72;1.10;;;;;;;26.93;57.14;98853.45;1738465;81;21785;-63
2021/07/22 10:46:17;;;;;;;4.62;1.15;;;;;;;26.95;54.25;98861.83;1723839;81;20863;-67
2021/07/22 10:48:45;;;;;;;3.62;1.15;;;;;;;26.83;51.26;98858.72;1751614;81;20900;-67
2021/07/22 10:51:21;;;;;;;3.12;1.10;;;;;;;26.74;52.52;98859.42;1723132;82;20991;-67
2021/07/22 10:53:56;;;;;;;2.42;0.95;;;;;;;26.74;52.55;98858.56;1761627;81;21014;-64
2021/07/22 10:56:38;;;;;;;4.17;0.90;;;;;;;26.75;53.03;98855.74;1756830;80;21176;-66
2021/07/22 10:59:07;;;;;;;9.70;1.07;;;;;;;26.76;54.73;98846.64;1769721;80;21486;-67
2021/07/22 11:01:50;;;;;;;7.28;1.35;;;;;;;26.75;53.87;98861.64;1772318;81;20904;-67
2021/07/22 11:04:45;;;;;;;2.62;0.85;;;;;;;26.66;52.27;98861.86;1772013;80;21463;-66
2021/07/22 11:07:16;;;;;;;3.00;1.55;;;;;;;26.62;54.48;98866.64;1772107;81;20897;-66
2021/07/22 11:09:49;;;;;;;8.48;1.40;;;;;;;26.64;54.49;98860.63;1772155;80;20846;-67
2021/07/22 11:12:44;;;;;;;2.80;1.05;;;;;;;26.73;56.65;98858.20;1772026;80;20945;-67
2021/07/22 11:15:22;;;;;;;3.20;0.93;;;;;;;26.70;53.35;98855.23;1772156;80;20937;-68
2021/07/22 11:17:51;;;;;;;6.28;1.52;;;;;;;26.63;54.17;98854.84;1736669;80;20988;-66
2021/07/22 11:20:24;;;;;;;4.28;1.10;;;;;;;26.63;55.20;98858.04;1772421;80;21494;-67
2021/07/22 11:22:52;;;;;;;3.37;1.20;;;;;;;26.63;53.65;98867.02;1753482;80;21174;-66
2021/07/22 11:25:20;;;;;;;4.42;1.10;;;;;;;26.70;55.54;98867.91;1735938;81;20991;-67
2021/07/22 11:27:48;;;;;;;4.60;1.27;;;;;;;26.79;56.06;98861.29;1736784;82;21437;-68
2021/07/22 11:30:19;;;;;;;5.92;0.93;;;;;;;26.94;55.84;98860.10;1756248;80;20933;-67
2021/07/22 11:32:48;;;;;;;4.90;1.30;;;;;;;27.11;55.13;98858.84;1745449;81;20901;-67
2021/07/22 11:35:19;;;;;;;2.75;1.20;;;;;;;27.20;53.76;98850.48;1710072;82;21195;-68
2021/07/22 11:37:47;;;;;;;6.08;0.95;;;;;;;27.18;51.92;98868.70;1790021;79;20928;-68
2021/07/22 11:40:17;;;;;;;4.62;1.10;;;;;;;27.15;52.61;98861.69;1791176;79;21408;-67
2021/07/22 11:42:51;;;;;;;3.42;1.30;;;;;;;27.19;53.35;98860.46;1791020;80;20940;-67
2021/07/22 11:45:19;;;;;;;2.95;1.27;;;;;;;27.19;52.67;98852.34;1790823;79;21431;-67
2021/07/22 11:47:49;;;;;;;5.28;1.20;;;;;;;27.21;53.52;98848.16;1786369;80;21455;-67
2021/07/22 11:50:18;;;;;;;3.20;1.20;;;;;;;27.26;55.29;98843.23;1740328;81;20918;-66
2021/07/22 11:52:47;;;;;;;1.90;1.00;;;;;;;27.32;55.25;98850.01;1757794;80;20865;-67
2021/07/22 11:55:16;;;;;;;3.37;1.30;;;;;;;27.40;55.44;98848.41;1762017;80;20928;-67
2021/07/22 11:57:44;;;;;;;5.42;1.12;;;;;;;27.48;54.20;98847.83;1734091;81;20945;-67
2021/07/22 12:00:20;;;;;;;2.12;1.10;;;;;;;27.52;52.55;98847.95;1759681;80;21836;-67
2021/07/22 12:02:53;;;;;;;4.42;1.15;;;;;;;27.49;52.04;98849.55;1766492;79;20924;-66
2021/07/22 12:05:26;;;;;;;4.65;1.60;;;;;;;27.43;53.07;98846.81;1734674;81;21021;-67
2021/07/22 12:07:56;;;;;;;6.87;3.20;;;;;;;27.44;53.09;98839.09;1738371;81;20944;-67
2021/07/22 12:10:29;;;;;;;5.90;1.95;;;;;;;27.49;51.76;98839.58;1748472;81;20966;-67
2021/07/22 12:13:08;;;;;;;3.80;1.70;;;;;;;27.57;51.37;98833.54;1764698;80;20998;-69
2021/07/22 12:15:35;;;;;;;1.77;1.15;;;;;;;27.63;51.47;98837.14;1764568;80;20840;-67
2021/07/22 12:18:04;;;;;;;7.67;1.32;;;;;;;27.55;49.37;98849.06;1764922;81;20919;-67
2021/07/22 12:20:33;;;;;;;4.28;2.15;;;;;;;27.41;48.95;98837.95;1765003;80;21508;-67
2021/07/22 12:23:22;;;;;;;3.20;1.25;;;;;;;27.31;50.15;98842.37;1756955;80;20974;-65
2021/07/22 12:26:04;;;;;;;10.18;4.00;;;;;;;27.28;50.58;98834.50;1762421;79;21168;-66
2021/07/22 12:28:32;;;;;;;9.38;5.17;;;;;;;27.31;51.89;98832.03;1768265;80;20954;-66
2021/07/22 12:31:21;;;;;;;4.20;2.42;;;;;;;27.39;52.70;98831.79;1764517;81;21009;-66
2021/07/22 12:34:02;;;;;;;3.17;1.50;;;;;;;27.51;52.97;98836.75;1780559;80;20888;-67
2021/07/22 12:36:32;;;;;;;4.08;1.60;;;;;;;27.56;50.25;98838.09;1770811;81;21120;-66
2021/07/22 12:39:18;;;;;;;3.12;1.62;;;;;;;27.57;49.58;98828.13;1772126;81;21757;-66
2021/07/22 12:41:47;;;;;;;3.50;1.15;;;;;;;27.52;48.77;98837.98;1771926;81;20845;-67
2021/07/22 12:44:52;;;;;;;2.27;1.35;;;;;;;27.48;49.27;98836.50;1771719;81;20859;-65
2021/07/22 12:47:35;;;;;;;3.85;1.22;;;;;;;27.48;48.82;98832.93;1771687;81;20893;-65
2021/07/22 12:50:05;;;;;;;;;;;;;;;27.50;50.37;98825.55;1770098;80;21029;-66
2021/07/22 12:52:32;;;;;;;3.00;1.47;;;;;;;27.56;51.01;98819.13;1785943;80;21783;-66
2021/07/22 12:55:04;;;;;;;2.60;1.20;;;;;;;27.63;51.04;98822.23;1754923;81;20971;-65
2021/07/22 12:57:40;;;;;;;3.47;1.60;;;;;;;27.62;49.73;98834.06;1780139;79;21634;-66
2021/07/22 13:00:14;;;;;;;8.95;2.15;;;;;;;27.54;49.16;98827.02;1755176;81;21109;-66
2021/07/22 13:02:58;;;;;;;4.25;1.40;;;;;;;27.43;49.76;98833.27;1748786;81;20880;-66
2021/07/22 13:05:27;;;;;;;3.50;1.42;;;;;;;27.32;49.35;98830.56;1767683;81;21165;-67
2021/07/22 13:07:54;;;;;;;5.75;1.27;;;;;;;27.18;49.73;98830.30;1748200;81;20895;-67
2021/07/22 13:10:23;;;;;;;2.30;1.22;;;;;;;27.06;49.18;98830.41;1764760;81;21505;-68
2021/07/22 13:12:51;;;;;;;1.70;1.30;;;;;;;26.95;51.46;98828.48;1748246;81;20947;-67
2021/07/22 13:15:19;;;;;;;6.42;1.35;;;;;;;26.92;53.12;98820.11;1762476;81;20934;-67
2021/07/22 13:17:47;;;;;;;5.22;1.87;;;;;;;26.96;53.55;98819.37;1723032;81;21018;-66
2021/07/22 13:20:19;;;;;;;1.87;1.65;;;;;;;27.04;54.40;98822.91;1744915;81;20950;-67
2021/07/22 13:22:47;;;;;;;6.05;1.37;;;;;;;27.14;54.86;98808.52;1754135;81;20986;-67
2021/07/22 13:25:15;;;;;;;3.17;1.30;;;;;;;27.23;54.63;98810.98;1757788;81;20971;-64
2021/07/22 13:27:44;;;;;;;3.35;1.10;;;;;;;27.34;54.89;98805.56;1756225;81;20944;-67
2021/07/22 13:30:14;;;;;;;4.95;1.40;;;;;;;27.42;52.37;98799.53;1746891;81;21842;-65
2021/07/22 13:32:43;;;;;;;2.45;1.30;;;;;;;27.47;51.52;98792.79;1742798;80;20958;-68
2021/07/22 13:35:12;;;;;;;1.80;1.37;;;;;;;27.52;50.54;98797.83;1763821;80;21015;-65
2021/07/22 13:37:41;;;;;;;2.27;1.20;;;;;;;27.58;50.34;98798.20;1757468;80;20974;-65
2021/07/22 13:40:11;;;;;;;3.80;1.35;;;;;;;27.68;50.42;98794.77;1768841;80;21522;-65
2021/07/22 13:42:39;;;;;;;2.62;1.40;;;;;;;27.77;50.57;98791.30;1768674;80;21961;-65
2021/07/22 13:45:08;;;;;;;8.08;1.37;;;;;;;27.87;50.50;98792.27;1760758;80;20959;-65
2021/07/22 13:47:36;;;;;;;7.30;1.40;;;;;;;28.00;50.47;98792.14;1739827;81;21104;-66
2021/07/22 13:50:05;;;;;;;9.53;1.60;;;;;;;28.07;48.59;98798.77;1738547;81;20951;-64
2021/07/22 13:52:34;;;;;;;3.22;1.30;;;;;;;28.10;46.84;98790.38;1741491;81;20931;-65
2021/07/22 13:55:02;;;;;;;7.75;3.80;;;;;;;28.09;45.83;98790.88;1753528;81;21845;-66
2021/07/22 13:57:29;;;;;;;1.82;1.60;;;;;;;28.12;45.72;98791.97;1755197;81;20875;-66
2021/07/22 13:59:58;;;;;;;3.65;1.60;;;;;;;28.15;45.14;98784.94;1750810;81;20975;-66
2021/07/22 14:02:27;;;;;;;3.15;1.45;;;;;;;28.15;45.44;98780.86;1764975;80;20915;-68
2021/07/22 14:04:54;;;;;;;4.35;1.50;;;;;;;28.19;46.25;98783.69;1750588;80;20982;-63
2021/07/22 14:07:22;;;;;;;13.55;1.85;;;;;;;28.20;45.91;98782.70;1764787;81;22031;-64
2021/07/22 14:09:50;;;;;;;4.37;1.40;;;;;;;28.18;45.27;98784.67;1761131;80;21249;-64
2021/07/22 14:12:17;;;;;;;3.50;1.47;;;;;;;28.13;45.59;98780.13;1794000;78;20948;-65
2021/07/22 14:14:45;;;;;;;5.45;1.30;;;;;;;28.09;45.29;98779.16;1785751;78;20903;-63
2021/07/22 14:17:14;;;;;;;2.30;1.80;;;;;;;28.03;46.17;98779.19;1755372;81;20990;-66
2021/07/22 14:19:42;;;;;;;3.02;1.75;;;;;;;27.99;45.81;98779.08;1755462;80;21167;-66
2021/07/22 14:22:13;;;;;;;3.60;1.57;;;;;;;27.90;45.50;98782.52;1765895;81;21013;-65
2021/07/22 14:24:40;;;;;;;3.87;2.25;;;;;;;27.81;45.50;98788.21;1756226;81;21589;-65
2021/07/22 14:27:08;;;;;;;5.40;4.37;;;;;;;27.79;46.50;98782.05;1747475;81;20911;-66
2021/07/22 14:29:36;;;;;;;5.45;2.40;;;;;;;27.79;46.66;98782.55;1728046;81;20991;-66
2021/07/22 14:32:04;;;;;;;3.92;1.62;;;;;;;27.77;47.55;98779.97;1750048;81;21156;-69
2021/07/22 14:34:33;;;;;;;2.35;1.50;;;;;;;27.78;48.26;98778.98;1701498;83;21485;-64
2021/07/22 14:37:03;;;;;;;4.08;1.40;;;;;;;27.72;47.73;98775.91;1701390;83;20970;-65
2021/07/22 14:39:30;;;;;;;6.72;1.45;;;;;;;27.66;48.64;98781.34;1701569;83;20989;-67
2021/07/22 14:41:58;;;;;;;7.30;2.08;;;;;;;27.66;49.50;98784.05;1727424;83;20944;-67
2021/07/22 14:44:26;;;;;;;5.65;1.50;;;;;;;27.65;49.58;98782.33;1775697;80;21144;-65
2021/07/22 14:46:54;;;;;;;6.87;1.90;;;;;;;27.60;49.39;98783.16;1743671;82;21438;-68
2021/07/22 14:49:22;;;;;;;2.42;1.50;;;;;;;27.49;49.30;98778.62;1747677;82;20903;-69
2021/07/22 14:51:51;;;;;;;3.90;1.60;;;;;;;27.40;49.85;98776.63;1744706;82;21463;-68
2021/07/22 14:54:21;;;;;;;3.65;1.60;;;;;;;27.31;50.04;98774.67;1735837;82;20934;-69
2021/07/22 14:56:51;;;;;;;3.52;1.30;;;;;;;27.23;51.06;98777.12;1744627;82;21940;-69
2021/07/22 14:59:20;;;;;;;5.78;1.47;;;;;;;27.15;51.05;98779.59;1764665;80;20983;-67
2021/07/22 15:01:48;;;;;;;2.12;1.50;;;;;;;27.08;51.24;98776.52;1763283;81;20901;-69
2021/07/22 15:04:17;;;;;;;2.45;1.40;;;;;;;27.00;51.48;98770.84;1765524;80;21025;-68
2021/07/22 15:06:46;;;;;;;1.85;1.37;;;;;;;26.92;51.71;98769.17;1763351;81;21028;-68
2021/07/22 15:09:15;;;;;;;5.25;1.55;;;;;;;26.88;52.83;98771.27;1765194;80;21496;-70
2021/07/22 15:11:44;;;;;;;3.87;1.40;;;;;;;26.86;54.62;98766.95;1767387;79;20997;-69
2021/07/22 15:14:12;;;;;;;3.33;1.80;;;;;;;26.88;56.16;98766.34;1771101;80;20982;-69
2021/07/22 15:27:39;;;;;;;2.85;1.50;;;;;;;27.40;53.84;98764.94;1762717;80;22797;-69
2021/07/22 15:30:08;;;;;;;1.72;1.22;;;;;;;27.45;54.19;98770.88;1736891;82;21400;-70
2021/07/22 15:32:36;;;;;;;3.15;1.70;;;;;;;27.44;54.00;98773.21;1759898;81;21157;-70
2021/07/22 15:35:06;;;;;;;3.92;1.70;;;;;;;27.40;53.93;98771.70;1808413;78;20848;-68
2021/07/22 15:37:33;;;;;;;2.27;1.52;;;;;;;27.35;54.31;98772.57;1743523;81;20889;-67
2021/07/22 15:40:01;;;;;;;4.25;1.65;;;;;;;27.33;55.44;98772.70;1744662;81;20884;-70
2021/07/22 15:42:29;;;;;;;4.00;1.60;;;;;;;27.32;56.23;98777.74;1744731;81;20903;-70
2021/07/22 15:45:00;;;;;;;2.40;1.60;;;;;;;27.31;56.23;98766.55;1755417;81;21841;-70
2021/07/22 15:47:25;;;;;;;2.45;1.42;;;;;;;27.28;56.98;98774.91;1794532;78;20970;-69
2021/07/22 15:49:55;;;;;;;4.62;2.22;;;;;;;27.21;55.75;98769.62;1754963;81;20958;-71
2021/07/22 15:52:23;;;;;;;10.88;1.90;;;;;;;27.14;56.72;98777.38;1802891;78;21048;-69
2021/07/22 15:54:51;;;;;;;2.22;1.65;;;;;;;27.08;55.40;98778.36;1754775;81;21541;-71
2021/07/22 15:57:22;;;;;;;3.70;1.72;;;;;;;26.97;51.82;98777.34;1755566;80;21157;-69
2021/07/22 15:59:51;;;;;;;3.22;1.50;;;;;;;26.84;50.04;98767.56;1752473;81;20908;-68
2021/07/22 16:02:19;;;;;;;3.35;1.60;;;;;;;26.73;48.95;98768.41;1752520;81;21003;-68
2021/07/22 16:04:47;;;;;;;2.40;1.50;;;;;;;26.58;48.90;98769.13;1754446;81;21000;-68
2021/07/22 16:07:14;;;;;;;3.50;1.37;;;;;;;26.45;49.45;98775.56;1730799;82;20940;-66
2021/07/22 16:09:41;;;;;;;4.20;1.67;;;;;;;26.36;50.76;98777.13;1747722;80;21231;-70
2021/07/22 16:12:10;;;;;;;2.30;1.50;;;;;;;26.23;51.20;98779.02;1754565;81;20896;-66
2021/07/22 16:14:38;;;;;;;3.80;1.67;;;;;;;26.13;51.75;98773.94;1744795;80;21398;-65
2021/07/22 16:17:05;;;;;;;4.33;1.85;;;;;;;25.98;51.25;98780.84;1755024;81;20894;-70
2021/07/22 16:19:37;;;;;;;3.02;1.70;;;;;;;25.83;51.73;98781.13;1744091;81;20943;-70
2021/07/22 16:22:05;;;;;;;4.30;1.80;;;;;;;25.70;52.39;98790.14;1740796;81;21576;-69
2021/07/22 16:24:33;;;;;;;2.33;1.50;;;;;;;25.57;52.74;98791.13;1730590;83;21417;-69
2021/07/22 16:27:01;;;;;;;2.47;1.55;;;;;;;25.45;52.92;98791.50;1728842;82;20960;-68
2021/07/22 16:29:29;;;;;;;4.78;1.67;;;;;;;25.36;53.15;98797.08;1738942;81;21023;-68
2021/07/22 16:31:56;;;;;;;3.45;1.60;;;;;;;25.25;52.06;98793.42;1751289;80;21030;-67
2021/07/22 16:34:24;;;;;;;3.08;1.50;;;;;;;25.14;51.85;98796.03;1743770;81;21166;-69
2021/07/22 16:36:51;;;;;;;6.15;1.70;;;;;;;25.02;52.47;98798.59;1729990;82;20939;-67
2021/07/22 16:39:19;;;;;;;4.97;1.70;;;;;;;24.92;53.46;98797.48;1738475;80;21074;-69
2021/07/22 16:41:46;;;;;;;2.90;1.40;;;;;;;24.82;54.05;98791.50;1744148;81;20894;-69
2021/07/22 16:44:15;;;;;;;2.20;1.70;;;;;;;24.72;55.01;98797.53;1745816;81;20946;-69
2021/07/22 16:46:43;;;;;;;5.12;1.42;;;;;;;24.68;56.77;98803.24;1758964;81;21109;-69
2021/07/22 16:49:11;;;;;;;4.83;1.55;;;;;;;24.61;57.95;98805.50;1755989;81;21001;-67
2021/07/22 16:51:40;;;;;;;3.15;1.90;;;;;;;24.54;58.85;98802.81;1747158;81;20992;-64
2021/07/22 16:54:08;;;;;;;3.10;1.50;;;;;;;24.46;60.00;98806.52;1733579;81;20862;-66
2021/07/22 16:56:37;;;;;;;1.95;1.57;;;;;;;24.37;61.18;98808.02;1760672;81;21397;-62
2021/07/22 16:59:05;;;;;;;3.83;1.80;;;;;;;24.29;62.22;98808.16;1760196;81;21157;-69
2021/07/22 17:01:33;;;;;;;4.50;1.67;;;;;;;24.21;63.53;98809.98;1758331;81;20908;-68
2021/07/22 17:04:01;;;;;;;3.05;1.85;;;;;;;24.14;64.32;98808.67;1747388;81;20961;-68
2021/07/22 17:06:28;;;;;;;8.68;2.10;;;;;;;24.06;65.08;98806.94;1742515;81;21061;-69
2021/07/22 17:09:01;;;;;;;6.70;2.30;;;;;;;23.97;66.28;98811.11;1742013;80;21434;-69
2021/07/22 17:11:26;;;;;;;2.20;1.60;;;;;;;23.89;67.33;98817.48;1743471;81;21566;-68
2021/07/22 17:13:53;;;;;;;2.90;1.60;;;;;;;23.83;68.41;98823.27;1730625;82;20920;-68
2021/07/22 17:16:23;;;;;;;4.67;1.70;;;;;;;23.75;69.93;98824.25;1730632;82;21485;-68
2021/07/22 17:18:50;;;;;;;2.45;1.55;;;;;;;23.67;70.95;98828.80;1730431;82;20982;-65
2021/07/22 17:21:18;;;;;;;4.83;1.60;;;;;;;23.59;73.11;98827.52;1744278;80;20939;-65
2021/07/22 17:23:47;;;;;;;2.70;1.55;;;;;;;23.53;75.67;98831.45;1752959;80;21172;-65
2021/07/22 17:26:15;;;;;;;3.22;2.20;;;;;;;23.46;77.59;98830.11;1756259;80;20886;-65
2021/07/22 17:28:44;;;;;;;4.12;2.27;;;;;;;23.40;79.46;98834.53;1746938;80;20887;-68
2021/07/22 17:31:12;;;;;;;1.92;1.62;;;;;;;23.33;80.77;98841.27;1760641;80;21486;-67
2021/07/22 17:33:39;;;;;;;4.00;1.72;;;;;;;23.27;83.17;98844.34;1750511;80;21417;-62
2021/07/22 17:36:06;;;;;;;3.42;1.82;;;;;;;23.21;85.85;98845.11;1761717;80;21169;-63
2021/07/22 17:38:34;;;;;;;3.00;1.70;;;;;;;23.14;88.19;98846.42;1772726;80;20969;-64
2021/07/22 17:41:01;;;;;;;4.42;1.82;;;;;;;23.09;90.06;98847.67;1768657;80;20961;-65
2021/07/22 17:43:29;;;;;;;2.52;1.60;;;;;;;23.03;91.95;98850.73;1768500;80;21526;-65
2021/07/22 17:45:57;;;;;;;5.05;2.27;;;;;;;22.96;93.56;98850.25;1768481;80;20834;-65
2021/07/22 17:48:25;;;;;;;3.58;1.92;;;;;;;22.91;95.04;98846.98;1768324;80;21062;-65
2021/07/22 17:50:53;;;;;;;3.22;1.70;;;;;;;22.85;96.67;98854.95;1768479;80;21373;-65
2021/07/22 17:53:21;;;;;;;2.33;1.70;;;;;;;22.77;98.80;98849.13;1768405;80;20972;-65
2021/07/22 17:55:50;;;;;;;6.30;2.10;;;;;;;22.72;100.00;98856.61;1768610;80;20951;-63
2021/07/22 17:58:18;;;;;;;3.83;2.30;;;;;;;22.65;100.00;98855.70;1768517;80;21447;-63
2021/07/22 18:00:46;;;;;;;3.42;2.22;;;;;;;22.57;100.00;98855.68;1768444;80;21171;-66
2021/07/22 18:03:13;;;;;;;5.17;2.70;;;;;;;22.51;100.00;98857.39;1768494;80;20878;-65
2021/07/22 18:05:42;;;;;;;4.42;2.22;;;;;;;22.44;100.00;98861.88;1768477;80;20936;-69
2021/07/22 18:08:10;;;;;;;9.20;2.10;;;;;;;22.36;100.00;98854.27;1768443;80;20961;-67
2021/07/22 18:10:39;;;;;;;2.95;2.58;;;;;;;22.30;100.00;98864.03;1768652;80;21020;-69
2021/07/22 18:13:08;;;;;;;4.42;2.47;;;;;;;22.22;100.00;98862.23;1768374;80;20945;-69
2021/07/22 18:15:37;;;;;;;3.47;2.40;;;;;;;22.15;100.00;98867.58;1765855;80;20989;-69
2021/07/22 18:18:09;;;;;;;3.83;2.72;;;;;;;22.08;100.00;98874.25;1764835;80;21586;-69
2021/07/22 18:20:38;;;;;;;7.92;3.35;;;;;;;22.00;100.00;98873.31;1768465;80;21021;-69
2021/07/22 18:23:06;;;;;;;7.78;3.30;;;;;;;21.92;100.00;98875.09;1762910;80;20982;-69
2021/07/22 18:25:36;;;;;;;7.42;3.10;;;;;;;21.86;100.00;98874.10;1763020;80;21858;-69
2021/07/22 18:28:05;;;;;;;4.95;3.08;;;;;;;21.80;100.00;98877.61;1751640;81;20973;-70
2021/07/22 18:30:33;;;;;;;3.98;2.60;;;;;;;21.72;100.00;98878.48;1713007;82;21021;-69
2021/07/22 18:33:15;;;;;;;4.78;2.50;;;;;;;21.64;100.00;98877.56;1739565;82;20903;-68
2021/07/22 18:36:03;;;;;;;7.53;2.87;;;;;;;21.58;100.00;98885.48;1739411;82;20943;-66
2021/07/22 18:38:31;;;;;;;5.78;2.33;;;;;;;21.53;100.00;98884.87;1709702;84;21065;-65
2021/07/22 18:40:59;;;;;;;3.77;2.30;;;;;;;21.48;100.00;98890.09;1719772;82;20942;-66
2021/07/22 18:43:28;;;;;;;4.78;2.30;;;;;;;21.42;100.00;98892.64;1739421;82;20931;-66
2021/07/22 18:45:56;;;;;;;6.03;2.08;;;;;;;21.38;100.00;98887.52;1737087;81;20986;-68
2021/07/22 18:48:26;;;;;;;4.92;2.20;;;;;;;21.31;100.00;98890.54;1735503;81;21013;-67
2021/07/22 18:50:54;;;;;;;2.65;1.90;;;;;;;21.26;100.00;98895.25;1744104;81;21089;-71
2021/07/22 18:53:23;;;;;;;3.72;2.10;;;;;;;21.23;100.00;98899.92;1736612;81;21125;-72
2021/07/22 18:55:52;;;;;;;5.17;2.30;;;;;;;21.18;100.00;98897.92;1743464;81;20955;-72
2021/07/22 18:58:20;;;;;;;4.17;2.00;;;;;;;21.14;100.00;98903.05;1749552;81;21013;-72
2021/07/22 19:00:48;;;;;;;6.58;2.40;;;;;;;21.10;100.00;98900.14;1711469;81;20997;-69
2021/07/22 19:03:15;;;;;;;6.08;2.12;;;;;;;21.04;100.00;98910.25;1709976;84;21117;-68
2021/07/22 19:05:44;;;;;;;4.75;1.90;;;;;;;21.00;100.00;98906.47;1709807;84;20994;-67
2021/07/22 19:08:12;;;;;;;5.42;1.90;;;;;;;20.97;100.00;98916.02;1709388;84;20990;-71
2021/07/22 19:10:42;;;;;;;7.45;2.35;;;;;;;20.93;100.00;98913.96;1709540;84;21646;-66
2021/07/22 19:13:12;;;;;;;3.02;1.80;;;;;;;20.89;100.00;98909.70;1709914;84;21112;-71
2021/07/22 19:15:41;;;;;;;3.40;1.62;;;;;;;20.86;100.00;98918.38;1709714;84;20998;-70
2021/07/22 19:18:11;;;;;;;3.83;1.70;;;;;;;20.83;100.00;98919.41;1709651;84;20974;-68
2021/07/22 19:20:40;;;;;;;4.50;1.92;;;;;;;20.79;100.00;98913.78;1709865;84;21369;-69
2021/07/22 19:23:09;;;;;;;3.52;1.80;;;;;;;20.75;100.00;98916.22;1710029;84;21422;-69
2021/07/22 19:25:37;;;;;;;5.50;2.65;;;;;;;20.71;100.00;98914.64;1745701;81;21417;-70
